Sheldon, South Carolina
Current Conditions -  °F | °C
As of 7:56 PM on Wednesday 17 Dec 2014 (Local Time) from KNBC Reporting Station
Scattered Clouds Scattered Clouds  
Wind Chill: 49°   Ceiling: Unl
Heat Index: 49°   Visibility: 10mi
Dew Point: 45°   Wind: 0mph
Humidity: 86%   Direction: NA
Pressure: 30.12"   Gusts: NA
Location:  32.6°N, 80.79°W
Report Text: KNBC 180056Z 00000KT 10SM FEW150 SCT250 09/07 A3012 RMK AO2 SLP201 T00940072
Loading
Personal Weather Stations






























Interactive Weather Map New forecast layout! Learn more

10-Day Weather Forecast

Advertisements
Track Severe Weather on mobile